sensor_id;sensor_type;location;lat;lon;timestamp;pressure;altitude;pressure_sealevel;temperature;humidity
17230;BME280;8731;50.364;8.958;2023-03-01T00:03:24;101309.47;;;1.05;65.85
17230;BME280;8731;50.364;8.958;2023-03-01T00:07:47;101304.91;;;1.03;65.09
17230;BME280;8731;50.364;8.958;2023-03-01T00:12:09;101305.81;;;1.03;66.50
17230;BME280;8731;50.364;8.958;2023-03-01T00:16:35;101293.72;;;1.06;65.11
17230;BME280;8731;50.364;8.958;2023-03-01T00:20:59;101295.78;;;1.03;65.81
17230;BME280;8731;50.364;8.958;2023-03-01T00:25:22;101294.88;;;0.91;67.08
17230;BME280;8731;50.364;8.958;2023-03-01T00:29:44;101302.41;;;0.91;66.64
17230;BME280;8731;50.364;8.958;2023-03-01T00:34:09;101291.69;;;0.87;66.30
17230;BME280;8731;50.364;8.958;2023-03-01T00:38:34;101291.28;;;0.73;67.58
17230;BME280;8731;50.364;8.958;2023-03-01T00:42:58;101282.16;;;0.79;67.16
17230;BME280;8731;50.364;8.958;2023-03-01T00:47:20;101278.75;;;0.73;67.23
17230;BME280;8731;50.364;8.958;2023-03-01T00:51:44;101274.84;;;0.69;67.15
17230;BME280;8731;50.364;8.958;2023-03-01T00:56:12;101269.63;;;0.45;67.67
17230;BME280;8731;50.364;8.958;2023-03-01T01:00:35;101258.69;;;0.45;67.67
17230;BME280;8731;50.364;8.958;2023-03-01T01:04:58;101270.78;;;0.53;68.09
17230;BME280;8731;50.364;8.958;2023-03-01T01:09:22;101256.88;;;0.49;67.94
17230;BME280;8731;50.364;8.958;2023-03-01T01:13:45;101263.47;;;0.43;68.10
17230;BME280;8731;50.364;8.958;2023-03-01T01:18:08;101260.75;;;0.30;69.28
17230;BME280;8731;50.364;8.958;2023-03-01T01:22:30;101249.78;;;0.19;69.99
17230;BME280;8731;50.364;8.958;2023-03-01T01:26:54;101244.34;;;0.16;70.20
17230;BME280;8731;50.364;8.958;2023-03-01T01:31:17;101235.44;;;0.18;69.46
17230;BME280;8731;50.364;8.958;2023-03-01T01:35:40;101232.97;;;0.12;69.75
17230;BME280;8731;50.364;8.958;2023-03-01T01:40:06;101228.41;;;0.10;70.62
17230;BME280;8731;50.364;8.958;2023-03-01T01:44:33;101228.41;;;0.10;69.94
17230;BME280;8731;50.364;8.958;2023-03-01T01:48:59;101237.28;;;0.02;70.67
17230;BME280;8731;50.364;8.958;2023-03-01T01:53:24;101259.47;;;-0.33;73.49
17230;BME280;8731;50.364;8.958;2023-03-01T01:57:49;101254.25;;;-0.29;72.69
17230;BME280;8731;50.364;8.958;2023-03-01T02:02:16;101246.34;;;-0.21;71.86
17230;BME280;8731;50.364;8.958;2023-03-01T02:06:42;101244.75;;;-0.20;70.37
17230;BME280;8731;50.364;8.958;2023-03-01T02:11:11;101238.78;;;-0.32;70.75
17230;BME280;8731;50.364;8.958;2023-03-01T02:15:37;101239.25;;;-0.29;71.69
17230;BME280;8731;50.364;8.958;2023-03-01T02:20:10;101228.31;;;-0.29;71.46
17230;BME280;8731;50.364;8.958;2023-03-01T02:24:47;101227.63;;;-0.34;71.80
17230;BME280;8731;50.364;8.958;2023-03-01T02:29:23;101223.53;;;-0.34;71.40
17230;BME280;8731;50.364;8.958;2023-03-01T02:33:47;101217.13;;;-0.48;71.77
17230;BME280;8731;50.364;8.958;2023-03-01T02:38:09;101209.44;;;-0.39;71.86
17230;BME280;8731;50.364;8.958;2023-03-01T02:42:35;101208.97;;;-0.47;72.01
17230;BME280;8731;50.364;8.958;2023-03-01T02:47:06;101208.53;;;-0.45;72.50
17230;BME280;8731;50.364;8.958;2023-03-01T02:51:42;101203.47;;;-0.50;72.47
17230;BME280;8731;50.364;8.958;2023-03-01T02:56:10;101196.19;;;-0.54;72.91
17230;BME280;8731;50.364;8.958;2023-03-01T03:00:36;101187.31;;;-0.52;73.37
17230;BME280;8731;50.364;8.958;2023-03-01T03:05:02;101194.16;;;-0.51;72.81
17230;BME280;8731;50.364;8.958;2023-03-01T03:09:26;101191.66;;;-0.51;72.29
17230;BME280;8731;50.364;8.958;2023-03-01T03:13:50;101181.19;;;-0.54;72.22
17230;BME280;8731;50.364;8.958;2023-03-01T03:18:15;101178.69;;;-0.54;72.18
17230;BME280;8731;50.364;8.958;2023-03-01T03:22:40;101166.19;;;-0.60;72.58
17230;BME280;8731;50.364;8.958;2023-03-01T03:27:03;101158.69;;;-0.60;72.45
17230;BME280;8731;50.364;8.958;2023-03-01T03:31:25;101168.66;;;-0.66;72.63
17230;BME280;8731;50.364;8.958;2023-03-01T03:35:48;101168.16;;;-0.80;73.77
17230;BME280;8731;50.364;8.958;2023-03-01T03:40:13;101156.31;;;-0.92;74.62
17230;BME280;8731;50.364;8.958;2023-03-01T03:44:35;101166.97;;;-0.93;74.81
17230;BME280;8731;50.364;8.958;2023-03-01T03:48:58;101162.59;;;-1.05;76.37
17230;BME280;8731;50.364;8.958;2023-03-01T03:53:21;101164.56;;;-1.19;77.69
17230;BME280;8731;50.364;8.958;2023-03-01T03:57:47;101159.72;;;-1.35;78.74
17230;BME280;8731;50.364;8.958;2023-03-01T04:02:11;101157.84;;;-1.04;75.31
17230;BME280;8731;50.364;8.958;2023-03-01T04:06:42;101153.53;;;-0.99;74.67
17230;BME280;8731;50.364;8.958;2023-03-01T04:11:05;101168.53;;;-0.99;74.10
17230;BME280;8731;50.364;8.958;2023-03-01T04:15:43;101163.53;;;-0.99;74.39
17230;BME280;8731;50.364;8.958;2023-03-01T04:20:06;101158.31;;;-0.95;73.99
17230;BME280;8731;50.364;8.958;2023-03-01T04:24:31;101164.47;;;-0.93;74.19
17230;BME280;8731;50.364;8.958;2023-03-01T04:28:53;101151.31;;;-0.92;73.97
17230;BME280;8731;50.364;8.958;2023-03-01T04:33:17;101144.22;;;-1.00;74.52
17230;BME280;8731;50.364;8.958;2023-03-01T04:37:40;101143.53;;;-0.99;74.68
17230;BME280;8731;50.364;8.958;2023-03-01T04:42:02;101139.56;;;-1.19;77.15
17230;BME280;8731;50.364;8.958;2023-03-01T04:46:25;101138.94;;;-1.13;77.73
17230;BME280;8731;50.364;8.958;2023-03-01T04:50:48;101134.91;;;-0.96;75.19
17230;BME280;8731;50.364;8.958;2023-03-01T04:55:10;101134.03;;;-0.90;74.52
17230;BME280;8731;50.364;8.958;2023-03-01T04:59:33;101143.38;;;-0.84;74.50
17230;BME280;8731;50.364;8.958;2023-03-01T05:03:56;101137.94;;;-0.81;74.63
17230;BME280;8731;50.364;8.958;2023-03-01T05:08:24;101137.22;;;-0.91;75.63
17230;BME280;8731;50.364;8.958;2023-03-01T05:12:47;101140.44;;;-0.81;74.18
17230;BME280;8731;50.364;8.958;2023-03-01T05:17:09;101134.75;;;-0.75;74.00
17230;BME280;8731;50.364;8.958;2023-03-01T05:21:31;101132.53;;;-0.68;74.33
17230;BME280;8731;50.364;8.958;2023-03-01T05:25:57;101134.97;;;-0.73;75.16
17230;BME280;8731;50.364;8.958;2023-03-01T05:30:19;101128.66;;;-0.66;74.07
17230;BME280;8731;50.364;8.958;2023-03-01T05:34:43;101122.28;;;-0.69;73.69
17230;BME280;8731;50.364;8.958;2023-03-01T05:39:06;101131.38;;;-0.70;74.78
17230;BME280;8731;50.364;8.958;2023-03-01T05:43:31;101130.03;;;-0.62;74.33
17230;BME280;8731;50.364;8.958;2023-03-01T20:10:27;100682.06;;;3.79;55.54
17230;BME280;8731;50.364;8.958;2023-03-01T20:14:50;100694.19;;;3.68;56.55
17230;BME280;8731;50.364;8.958;2023-03-01T20:19:20;100707.72;;;3.36;57.04
17230;BME280;8731;50.364;8.958;2023-03-01T20:23:42;100713.00;;;3.45;57.35
17230;BME280;8731;50.364;8.958;2023-03-01T20:28:06;100704.69;;;3.39;57.01
17230;BME280;8731;50.364;8.958;2023-03-01T20:32:29;100704.59;;;3.32;57.49
17230;BME280;8731;50.364;8.958;2023-03-01T20:36:51;100705.72;;;3.21;57.43
17230;BME280;8731;50.364;8.958;2023-03-01T20:41:14;100697.59;;;3.17;57.73
17230;BME280;8731;50.364;8.958;2023-03-01T20:45:37;100707.47;;;3.02;58.12
17230;BME280;8731;50.364;8.958;2023-03-01T20:50:00;100712.00;;;2.80;59.41
17230;BME280;8731;50.364;8.958;2023-03-01T20:54:24;100711.22;;;2.73;58.90
17230;BME280;8731;50.364;8.958;2023-03-01T20:58:47;100705.59;;;2.69;59.17
17230;BME280;8731;50.364;8.958;2023-03-01T21:03:11;100705.78;;;2.70;59.14
17230;BME280;8731;50.364;8.958;2023-03-01T21:07:33;100710.31;;;2.60;59.90
17230;BME280;8731;50.364;8.958;2023-03-01T21:11:56;100712.50;;;2.52;59.33
17230;BME280;8731;50.364;8.958;2023-03-01T21:16:18;100718.63;;;2.54;59.10
17230;BME280;8731;50.364;8.958;2023-03-01T21:20:42;100719.34;;;2.40;59.37
17230;BME280;8731;50.364;8.958;2023-03-01T21:25:04;100712.31;;;2.37;59.96
17230;BME280;8731;50.364;8.958;2023-03-01T21:29:27;100711.47;;;2.31;59.94
17230;BME280;8731;50.364;8.958;2023-03-01T21:33:51;100708.06;;;2.18;60.59
17230;BME280;8731;50.364;8.958;2023-03-01T21:38:16;100707.66;;;2.15;60.02
17230;BME280;8731;50.364;8.958;2023-03-01T21:42:38;100714.06;;;1.82;62.06
17230;BME280;8731;50.364;8.958;2023-03-01T21:47:03;100712.47;;;1.64;63.65
17230;BME280;8731;50.364;8.958;2023-03-01T21:51:26;100702.09;;;1.56;63.70
17230;BME280;8731;50.364;8.958;2023-03-01T21:55:51;100713.03;;;1.74;62.49
17230;BME280;8731;50.364;8.958;2023-03-01T22:00:14;100711.03;;;1.35;65.20
17230;BME280;8731;50.364;8.958;2023-03-01T22:04:37;100708.72;;;1.55;63.55
17230;BME280;8731;50.364;8.958;2023-03-01T22:09:03;100710.22;;;1.29;64.48
17230;BME280;8731;50.364;8.958;2023-03-01T22:13:29;100706.63;;;1.40;64.37
17230;BME280;8731;50.364;8.958;2023-03-01T22:17:52;100719.19;;;1.03;65.63
17230;BME280;8731;50.364;8.958;2023-03-01T22:22:15;100706.09;;;1.30;64.48
17230;BME280;8731;50.364;8.958;2023-03-01T22:26:39;100709.00;;;1.14;65.56
17230;BME280;8731;50.364;8.958;2023-03-01T22:31:04;100708.16;;;1.08;65.08
17230;BME280;8731;50.364;8.958;2023-03-01T22:35:27;100697.34;;;1.20;64.33
17230;BME280;8731;50.364;8.958;2023-03-01T22:39:49;100691.88;;;1.17;64.31
17230;BME280;8731;50.364;8.958;2023-03-01T22:44:12;100700.53;;;1.19;63.93
17230;BME280;8731;50.364;8.958;2023-03-01T22:48:37;100705.66;;;1.08;64.34
17230;BME280;8731;50.364;8.958;2023-03-01T22:52:59;100703.50;;;0.99;65.60
17230;BME280;8731;50.364;8.958;2023-03-01T22:57:21;100689.41;;;0.93;65.40
17230;BME280;8731;50.364;8.958;2023-03-01T23:01:44;100695.19;;;0.87;65.73
17230;BME280;8731;50.364;8.958;2023-03-01T23:06:08;100694.06;;;0.85;65.31
17230;BME280;8731;50.364;8.958;2023-03-01T23:10:31;100690.03;;;0.80;66.01
17230;BME280;8731;50.364;8.958;2023-03-01T23:14:53;100689.69;;;0.71;66.80
17230;BME280;8731;50.364;8.958;2023-03-01T23:19:15;100687.59;;;0.74;66.18
17230;BME280;8731;50.364;8.958;2023-03-01T23:23:39;100686.25;;;0.71;66.59
17230;BME280;8731;50.364;8.958;2023-03-01T23:28:02;100682.19;;;0.66;65.97
17230;BME280;8731;50.364;8.958;2023-03-01T23:32:24;100675.09;;;0.69;66.12
17230;BME280;8731;50.364;8.958;2023-03-01T23:36:46;100672.03;;;0.58;66.25
17230;BME280;8731;50.364;8.958;2023-03-01T23:41:14;100669.31;;;0.57;66.63
17230;BME280;8731;50.364;8.958;2023-03-01T23:45:38;100666.00;;;0.45;66.85
17230;BME280;8731;50.364;8.958;2023-03-01T23:50:02;100668.50;;;0.45;66.85
17230;BME280;8731;50.364;8.958;2023-03-01T23:54:25;100673.34;;;0.38;67.52
17230;BME280;8731;50.364;8.958;2023-03-01T23:58:49;100667.94;;;0.35;67.42
